Home PIREPS Pireps

Flight SAB2287

  • Submitted By: John Smits
  • Departure Airport: Bruxelles National (EBBR)
  • Arrival Airport: Oslo Airport, Gardermoen (ENGM)
  • Aircraft: B737-500 (OO-SAB)
  • Flight Time: 01.56
  • Date Submitted: 08/02/2017
  • Status: Accepted
Flight Details
Gross Revenue:
(123 load / € 0.00 per unit
€ 0.00
Fuel Cost:
(5102 fuel used @ 5.1 / unit)
€ 26,020.20

Additional Log Information:

View Log

Aircraft Used in flight is PMDG 737-800NGX PMDG House Winglets
18:55 Brakes are On
19:00 Brakes are Released
19:02 Brakes are On
19:04 Brakes are Released
19:08 Brakes are On
19:09 Brakes are Released
19:11 You Took off @ 150 Knots and Flaps at Position 3
Departure Weather
EBBR 081750Z 36004KT 1200 R25L/P2000N R25R/P2000N R01/P2000N BR BKN003 03/02 Q1025 NOSIGrn
19:14 Landing Gear Up @ 233 Knots and 6350 Feet
19:15 Above FL100 you need to switch of the landing lights
19:19 Above FL100 you need to switch of the landing lights
20:24 Above FL100 you need to switch of the landing lights
20:43 Landing Gear Down @ 172 Knots and 3740 Feet
20:47 You Landed @ 135 Knots and with -100 Vertical Speed
Arrival Weather
ENGM 081920Z 36007KT 9999 -SHSN OVC032 M08/M12 Q1045 NOSIGrn
20:47 Paused
20:49 Unpaused
20:49 Brakes are On
20:51 Brakes are Released
20:51 Paused
20:55 Brakes are On
20:55 Unpaused
20:56 Brakes are Released
20:56 Paused
20:57 Unpaused
20:57 Paused
20:58 Unpaused
20:58 Brakes are On
21:00 Brussels Bel-Track1.0.0.9

Route Map

Corporate About Us Our Team Vacancies Information Fleet Route Network Rules and Regulations Operations Flight Schedules Event Center Tours Partners IVAO Vatsim Acars dev FSCB

fb Users Online Belgium Chafik MATTAR,
1 Pilot(s) and 216 Guest(s) Online
CMS by phpVMS - Design by Crazycreatives.com - Copyright © 2019 - Brussels Airlines Virtual